createdAt,value
2022-10-28T00:03:45.854Z,13.10
2022-10-28T00:08:50.597Z,13.90
2022-10-28T00:13:56.469Z,13.30
2022-10-28T00:19:01.726Z,12.40
2022-10-28T00:24:06.953Z,12.30
2022-10-28T00:29:13.218Z,12.20
2022-10-28T00:34:19.145Z,13.20
2022-10-28T00:39:25.495Z,12.10
2022-10-28T00:44:40.823Z,13.80
2022-10-28T00:49:46.807Z,12.60
2022-10-28T00:54:52.782Z,11.90
2022-10-28T00:59:57.323Z,11.70
2022-10-28T01:05:00.870Z,11.10
2022-10-28T01:10:05.014Z,10.90
2022-10-28T01:15:30.701Z,11.80
2022-10-28T01:20:45.250Z,12.10
2022-10-28T01:26:23.281Z,10.70
2022-10-28T01:31:45.429Z,10.30
2022-10-28T01:36:57.670Z,11.50
2022-10-28T01:42:38.929Z,11.80
2022-10-28T01:47:47.472Z,11.20
2022-10-28T01:52:55.241Z,10.60
2022-10-28T01:58:01.686Z,12.90
2022-10-28T02:03:07.973Z,11.30
2022-10-28T02:08:20.598Z,12.00
2022-10-28T02:13:33.414Z,12.10
2022-10-28T02:18:49.843Z,10.40
2022-10-28T02:23:59.183Z,10.80
2022-10-28T02:29:52.028Z,9.30
2022-10-28T02:35:01.548Z,12.50
2022-10-28T02:40:10.077Z,11.40
2022-10-28T02:45:21.522Z,10.70
2022-10-28T02:50:30.879Z,11.80
2022-10-28T02:55:40.228Z,10.00
2022-10-28T03:00:45.813Z,8.90
2022-10-28T03:05:49.319Z,9.60
2022-10-28T03:10:52.741Z,8.70
2022-10-28T03:15:56.158Z,10.60
2022-10-28T03:20:59.471Z,8.90
2022-10-28T03:26:02.892Z,9.60
2022-10-28T03:31:06.410Z,10.30
2022-10-28T03:36:09.831Z,8.80
2022-10-28T03:41:13.351Z,9.40
2022-10-28T03:46:16.769Z,9.20
2022-10-28T03:51:20.084Z,8.70
2022-10-28T03:56:23.509Z,10.00
2022-10-28T04:01:27.019Z,9.40
2022-10-28T04:06:30.548Z,9.50
2022-10-28T04:11:33.964Z,8.20
2022-10-28T04:16:37.389Z,11.30
2022-10-28T04:21:40.800Z,9.00
2022-10-28T04:26:44.218Z,8.80
2022-10-28T04:31:50.020Z,7.50
2022-10-28T04:36:55.913Z,8.70
2022-10-28T04:41:59.287Z,8.10
2022-10-28T04:47:02.709Z,8.30
2022-10-28T04:52:08.761Z,7.30
2022-10-28T04:57:14.247Z,9.00
2022-10-28T05:02:17.756Z,8.10
2022-10-28T05:07:23.525Z,8.50
2022-10-28T05:12:27.162Z,7.80
2022-10-28T05:17:32.222Z,8.00
2022-10-28T05:22:35.945Z,8.80
2022-10-28T05:27:39.572Z,7.60
2022-10-28T05:32:43.301Z,9.10
2022-10-28T05:37:47.021Z,8.90
2022-10-28T05:42:51.018Z,11.50
2022-10-28T05:48:08.148Z,10.20
2022-10-28T05:53:15.498Z,8.80
2022-10-28T05:58:18.908Z,7.60
2022-10-28T06:03:24.086Z,10.40
2022-10-28T06:08:31.073Z,10.10
2022-10-28T06:13:33.157Z,11.00
2022-10-28T06:18:36.885Z,12.30
2022-10-28T06:23:40.615Z,8.60
2022-10-28T06:28:47.159Z,10.00
2022-10-28T06:33:50.947Z,22.20
2022-10-28T06:38:54.778Z,10.80
2022-10-28T06:43:58.297Z,12.60
2022-10-28T06:49:03.955Z,16.30
2022-10-28T06:54:10.465Z,11.90
2022-10-28T06:59:13.867Z,11.60
2022-10-28T07:04:18.297Z,13.70
2022-10-28T07:09:23.925Z,12.70
2022-10-28T07:14:30.117Z,10.00
2022-10-28T07:19:33.905Z,11.00
2022-10-28T07:24:37.328Z,9.40
2022-10-28T07:29:44.909Z,11.60
2022-10-28T07:34:50.164Z,14.20
2022-10-28T07:39:54.341Z,15.90
2022-10-28T07:45:00.237Z,10.10
2022-10-28T07:50:08.552Z,10.50
2022-10-28T07:55:16.802Z,11.50
2022-10-28T08:00:28.879Z,11.20
2022-10-28T08:05:32.397Z,9.80
2022-10-28T08:10:47.109Z,8.80
2022-10-28T08:15:56.546Z,9.70
2022-10-28T08:21:06.915Z,10.40
2022-10-28T08:26:14.385Z,7.70
2022-10-28T08:31:18.163Z,8.30
2022-10-28T08:36:21.775Z,9.80
2022-10-28T08:41:52.584Z,9.20
2022-10-28T08:47:28.165Z,7.30
2022-10-28T08:52:43.631Z,8.30
2022-10-28T08:57:58.985Z,10.10
2022-10-28T09:03:12.267Z,9.80
2022-10-28T09:08:26.526Z,8.30
2022-10-28T09:13:52.462Z,12.60
2022-10-28T09:19:05.502Z,7.70
2022-10-28T09:24:19.354Z,11.00
2022-10-28T09:29:31.368Z,7.60
2022-10-28T09:34:49.626Z,9.00
2022-10-28T09:40:01.752Z,10.20
2022-10-28T09:45:12.153Z,6.90
2022-10-28T09:50:22.720Z,5.70
2022-10-28T09:55:26.326Z,7.20
2022-10-28T10:00:29.745Z,8.10
2022-10-28T10:05:38.073Z,5.90
2022-10-28T10:11:01.085Z,7.50
2022-10-28T10:16:17.556Z,6.20
2022-10-28T10:21:57.405Z,6.10
2022-10-28T10:27:04.168Z,7.20
2022-10-28T10:32:18.159Z,10.40
2022-10-28T10:37:23.010Z,6.00
2022-10-28T10:42:27.791Z,6.40
2022-10-28T10:47:31.180Z,8.50
2022-10-28T10:52:35.316Z,4.60
2022-10-28T10:57:46.929Z,6.40
2022-10-28T11:02:54.994Z,6.20
2022-10-28T11:08:05.325Z,5.80
2022-10-28T11:13:27.776Z,5.10
2022-10-28T11:18:44.399Z,6.80
2022-10-28T11:23:59.581Z,5.30
2022-10-28T11:29:15.069Z,7.20
2022-10-28T11:34:27.301Z,6.20
2022-10-28T11:39:34.392Z,4.10
2022-10-28T11:44:45.495Z,5.60
2022-10-28T11:50:02.833Z,5.30
2022-10-28T11:55:23.140Z,5.00
2022-10-28T12:00:41.691Z,7.40
2022-10-28T12:06:07.621Z,6.10
2022-10-28T12:11:18.129Z,4.60
2022-10-28T12:16:44.852Z,5.50
2022-10-28T12:21:51.243Z,6.50
2022-10-28T12:27:02.284Z,5.70
2022-10-28T12:32:09.220Z,8.20
2022-10-28T12:37:25.236Z,9.40
2022-10-28T12:42:32.236Z,6.00
2022-10-28T12:47:47.844Z,5.20
2022-10-28T12:52:55.387Z,5.90
2022-10-28T12:58:19.024Z,5.30
2022-10-28T13:03:53.370Z,6.30
2022-10-28T13:09:14.982Z,4.90
2022-10-28T13:14:39.794Z,7.80
2022-10-28T13:20:30.534Z,3.60
2022-10-28T13:25:57.986Z,6.80
2022-10-28T13:31:07.475Z,5.20
2022-10-28T13:36:39.122Z,4.50
2022-10-28T13:41:52.110Z,4.50
2022-10-28T13:47:24.653Z,10.50
2022-10-28T13:52:33.352Z,4.90
2022-10-28T13:57:39.286Z,5.60
2022-10-28T14:02:57.526Z,7.90
2022-10-28T14:08:07.495Z,6.90
2022-10-28T14:13:22.351Z,6.80
2022-10-28T14:18:48.704Z,6.70
2022-10-28T14:24:10.181Z,6.10
2022-10-28T14:29:24.175Z,5.10
2022-10-28T14:34:36.974Z,5.50
2022-10-28T14:39:53.094Z,3.90
2022-10-28T14:45:35.777Z,3.80
2022-10-28T14:50:44.223Z,5.80
2022-10-28T14:56:09.869Z,6.30
2022-10-28T15:01:25.559Z,5.50
2022-10-28T15:06:33.064Z,6.70
2022-10-28T15:11:41.594Z,6.00
2022-10-28T15:16:49.485Z,6.60
2022-10-28T15:22:23.128Z,9.70
2022-10-28T15:32:36.205Z,5.90
2022-10-28T15:37:49.628Z,4.80
2022-10-28T15:43:13.155Z,6.20
2022-10-28T15:48:26.981Z,7.80
2022-10-28T15:53:42.985Z,16.90
2022-10-28T15:59:01.648Z,13.10
2022-10-28T16:04:31.903Z,11.20
2022-10-28T16:09:47.855Z,8.40
2022-10-28T16:15:02.764Z,10.40
2022-10-28T16:20:26.692Z,9.90
2022-10-28T16:25:32.831Z,19.60
2022-10-28T16:30:36.350Z,9.60
2022-10-28T16:35:39.769Z,11.90
2022-10-28T16:40:51.470Z,14.30
2022-10-28T16:45:57.690Z,12.40
2022-10-28T16:51:04.581Z,11.50
2022-10-28T16:56:15.323Z,6.60
2022-10-28T17:01:23.047Z,7.80
2022-10-28T17:06:26.686Z,12.80
2022-10-28T17:16:37.997Z,8.60
2022-10-28T17:21:44.206Z,6.10
2022-10-28T17:26:52.433Z,12.10
2022-10-28T17:31:57.592Z,7.70
2022-10-28T17:37:04.416Z,10.80
2022-10-28T17:42:10.470Z,10.10
2022-10-28T17:47:14.081Z,12.30
2022-10-28T17:52:17.724Z,9.40
2022-10-28T17:57:21.234Z,7.20
2022-10-28T18:02:27.544Z,8.90
2022-10-28T18:07:31.245Z,9.00
2022-10-28T18:12:34.778Z,9.80
2022-10-28T18:17:43.817Z,12.90
2022-10-28T18:22:47.466Z,12.10
2022-10-28T18:27:50.953Z,9.70
2022-10-28T18:32:55.329Z,8.30
2022-10-28T18:38:01.685Z,9.40
2022-10-28T18:43:05.409Z,9.70
2022-10-28T18:48:13.032Z,8.50
2022-10-28T18:53:22.685Z,13.60
2022-10-28T18:58:27.841Z,19.30
2022-10-28T19:03:31.466Z,18.40
2022-10-28T19:08:40.325Z,24.00
2022-10-28T19:13:49.971Z,15.20
2022-10-28T19:18:57.959Z,14.00
2022-10-28T19:29:53.904Z,11.30
2022-10-28T19:35:18.553Z,16.10
2022-10-28T19:40:47.480Z,12.80
2022-10-28T19:46:33.140Z,11.90
2022-10-28T19:51:55.175Z,15.50
2022-10-28T19:57:14.720Z,13.40
2022-10-28T20:02:39.943Z,13.50
2022-10-28T20:07:45.851Z,13.50
2022-10-28T20:12:49.268Z,14.80
2022-10-28T20:17:52.795Z,11.30
2022-10-28T20:22:56.632Z,13.40
2022-10-28T20:28:03.210Z,12.10
2022-10-28T20:33:06.933Z,18.00
2022-10-28T20:38:16.184Z,13.10
2022-10-28T20:43:25.335Z,14.60
2022-10-28T20:48:30.621Z,12.80
2022-10-28T20:53:37.304Z,13.40
2022-10-28T20:58:42.346Z,13.20
2022-10-28T21:03:46.892Z,10.20
2022-10-28T21:08:50.311Z,12.40
2022-10-28T21:13:58.754Z,12.40
2022-10-28T21:19:02.493Z,20.60
2022-10-28T21:24:08.727Z,11.20
2022-10-28T21:29:13.922Z,13.90
2022-10-28T21:34:17.531Z,16.70
2022-10-28T21:39:22.278Z,14.20
2022-10-28T21:44:25.728Z,9.80
2022-10-28T21:49:29.321Z,11.90
2022-10-28T21:54:34.277Z,12.30
2022-10-28T21:59:37.794Z,11.80
2022-10-28T22:04:41.314Z,8.60
2022-10-28T22:09:45.380Z,10.20
2022-10-28T22:14:54.906Z,8.40
2022-10-28T22:19:58.322Z,12.80
2022-10-28T22:25:02.794Z,10.80
2022-10-28T22:30:09.373Z,9.30
2022-10-28T22:35:12.978Z,8.70
2022-10-28T22:40:16.508Z,9.90
2022-10-28T22:45:19.924Z,8.90
2022-10-28T22:50:23.344Z,9.30
2022-10-28T22:55:26.765Z,10.90
2022-10-28T23:00:30.379Z,10.80
2022-10-28T23:05:33.802Z,8.70
2022-10-28T23:10:37.169Z,11.20
2022-10-28T23:15:40.638Z,7.60
2022-10-28T23:20:44.051Z,10.00
2022-10-28T23:25:54.587Z,9.20
2022-10-28T23:31:03.104Z,9.80
2022-10-28T23:36:07.066Z,9.50
2022-10-28T23:41:15.565Z,8.70
2022-10-28T23:46:19.089Z,11.70
2022-10-28T23:51:22.576Z,11.90
2022-10-28T23:56:26.095Z,11.50
